sensor_id;sensor_type;location;lat;lon;timestamp;temperature;humidity
58517;DHT22;44308;50.810;0.284;2022-11-20T00:01:11;4.40;99.90
58517;DHT22;44308;50.810;0.284;2022-11-20T00:03:38;4.50;99.90
58517;DHT22;44308;50.810;0.284;2022-11-20T00:06:05;4.40;99.90
58517;DHT22;44308;50.810;0.284;2022-11-20T00:08:31;4.50;99.90
58517;DHT22;44308;50.810;0.284;2022-11-20T00:10:57;4.40;99.90
58517;DHT22;44308;50.810;0.284;2022-11-20T00:13:23;4.60;99.90
58517;DHT22;44308;50.810;0.284;2022-11-20T00:15:56;4.70;99.90
58517;DHT22;44308;50.810;0.284;2022-11-20T00:18:22;4.80;99.90
58517;DHT22;44308;50.810;0.284;2022-11-20T00:20:47;4.50;99.90
58517;DHT22;44308;50.810;0.284;2022-11-20T00:23:13;4.70;99.90
58517;DHT22;44308;50.810;0.284;2022-11-20T00:25:41;4.60;99.90
58517;DHT22;44308;50.810;0.284;2022-11-20T00:28:06;4.80;99.90
58517;DHT22;44308;50.810;0.284;2022-11-20T00:30:32;4.90;99.90
58517;DHT22;44308;50.810;0.284;2022-11-20T00:32:58;4.70;99.90
58517;DHT22;44308;50.810;0.284;2022-11-20T00:35:25;4.80;99.90
58517;DHT22;44308;50.810;0.284;2022-11-20T00:37:50;4.80;99.90
58517;DHT22;44308;50.810;0.284;2022-11-20T00:40:16;4.90;99.90
58517;DHT22;44308;50.810;0.284;2022-11-20T00:42:45;5.10;99.90
58517;DHT22;44308;50.810;0.284;2022-11-20T00:45:12;4.90;99.90
58517;DHT22;44308;50.810;0.284;2022-11-20T00:47:37;4.90;99.90
58517;DHT22;44308;50.810;0.284;2022-11-20T00:50:03;4.90;99.90
58517;DHT22;44308;50.810;0.284;2022-11-20T00:52:29;5.00;99.90
58517;DHT22;44308;50.810;0.284;2022-11-20T00:54:57;5.10;99.90
58517;DHT22;44308;50.810;0.284;2022-11-20T00:57:22;4.90;99.90
58517;DHT22;44308;50.810;0.284;2022-11-20T00:59:48;5.20;99.90
58517;DHT22;44308;50.810;0.284;2022-11-20T01:02:14;5.30;99.90
58517;DHT22;44308;50.810;0.284;2022-11-20T01:04:42;5.20;99.90
58517;DHT22;44308;50.810;0.284;2022-11-20T01:07:08;5.40;99.90
58517;DHT22;44308;50.810;0.284;2022-11-20T01:09:33;5.10;99.90
58517;DHT22;44308;50.810;0.284;2022-11-20T01:11:59;5.30;99.90
58517;DHT22;44308;50.810;0.284;2022-11-20T01:14:26;5.30;99.90
58517;DHT22;44308;50.810;0.284;2022-11-20T01:16:52;5.10;99.90
58517;DHT22;44308;50.810;0.284;2022-11-20T01:19:20;5.00;99.90
58517;DHT22;44308;50.810;0.284;2022-11-20T01:21:51;5.40;99.90
58517;DHT22;44308;50.810;0.284;2022-11-20T01:24:19;5.10;99.90
58517;DHT22;44308;50.810;0.284;2022-11-20T01:26:49;5.10;99.90
58517;DHT22;44308;50.810;0.284;2022-11-20T01:29:20;5.20;99.90
58517;DHT22;44308;50.810;0.284;2022-11-20T01:31:46;5.40;99.90
58517;DHT22;44308;50.810;0.284;2022-11-20T01:34:17;5.50;99.90
58517;DHT22;44308;50.810;0.284;2022-11-20T01:36:44;5.20;99.90
58517;DHT22;44308;50.810;0.284;2022-11-20T01:39:16;5.50;99.90
58517;DHT22;44308;50.810;0.284;2022-11-20T01:41:43;5.50;99.90
58517;DHT22;44308;50.810;0.284;2022-11-20T01:47:30;5.50;99.90
58517;DHT22;44308;50.810;0.284;2022-11-20T01:50:24;5.60;99.90
58517;DHT22;44308;50.810;0.284;2022-11-20T01:53:09;5.30;99.90
58517;DHT22;44308;50.810;0.284;2022-11-20T01:55:45;5.60;99.90
58517;DHT22;44308;50.810;0.284;2022-11-20T01:58:12;5.50;99.90
58517;DHT22;44308;50.810;0.284;2022-11-20T02:00:38;5.50;99.90
58517;DHT22;44308;50.810;0.284;2022-11-20T02:03:07;5.60;99.90
58517;DHT22;44308;50.810;0.284;2022-11-20T02:05:43;5.60;99.90
58517;DHT22;44308;50.810;0.284;2022-11-20T02:08:10;5.70;99.90
58517;DHT22;44308;50.810;0.284;2022-11-20T02:10:37;5.40;99.90
58517;DHT22;44308;50.810;0.284;2022-11-20T02:13:03;5.80;99.90
58517;DHT22;44308;50.810;0.284;2022-11-20T02:16:30;5.60;99.90
58517;DHT22;44308;50.810;0.284;2022-11-20T02:18:55;5.60;99.90
58517;DHT22;44308;50.810;0.284;2022-11-20T02:24:18;5.90;99.90
58517;DHT22;44308;50.810;0.284;2022-11-20T02:26:51;5.90;99.90
58517;DHT22;44308;50.810;0.284;2022-11-20T02:29:25;5.70;99.90
58517;DHT22;44308;50.810;0.284;2022-11-20T02:31:54;6.10;99.90
58517;DHT22;44308;50.810;0.284;2022-11-20T02:34:20;6.10;99.90
58517;DHT22;44308;50.810;0.284;2022-11-20T02:36:49;5.90;99.90
58517;DHT22;44308;50.810;0.284;2022-11-20T02:39:16;6.10;99.90
58517;DHT22;44308;50.810;0.284;2022-11-20T02:41:42;6.10;99.90
58517;DHT22;44308;50.810;0.284;2022-11-20T02:44:08;6.40;99.90
58517;DHT22;44308;50.810;0.284;2022-11-20T02:46:56;6.50;99.90
58517;DHT22;44308;50.810;0.284;2022-11-20T02:49:22;6.30;99.90
58517;DHT22;44308;50.810;0.284;2022-11-20T02:51:47;6.70;99.90
58517;DHT22;44308;50.810;0.284;2022-11-20T02:54:13;6.40;99.90
58517;DHT22;44308;50.810;0.284;2022-11-20T02:56:39;6.50;99.90
58517;DHT22;44308;50.810;0.284;2022-11-20T02:59:04;6.80;99.90
58517;DHT22;44308;50.810;0.284;2022-11-20T03:01:30;6.60;99.90
58517;DHT22;44308;50.810;0.284;2022-11-20T03:03:56;6.60;99.90
58517;DHT22;44308;50.810;0.284;2022-11-20T03:06:41;6.80;99.90
58517;DHT22;44308;50.810;0.284;2022-11-20T03:09:07;6.90;99.90
58517;DHT22;44308;50.810;0.284;2022-11-20T03:11:32;6.80;99.90
58517;DHT22;44308;50.810;0.284;2022-11-20T03:14:02;6.70;99.90
58517;DHT22;44308;50.810;0.284;2022-11-20T03:16:30;6.80;99.90
58517;DHT22;44308;50.810;0.284;2022-11-20T03:18:56;6.90;99.90
58517;DHT22;44308;50.810;0.284;2022-11-20T03:21:22;7.00;99.90
58517;DHT22;44308;50.810;0.284;2022-11-20T03:23:48;6.80;99.90
58517;DHT22;44308;50.810;0.284;2022-11-20T03:26:22;7.00;99.90
58517;DHT22;44308;50.810;0.284;2022-11-20T03:28:53;6.80;99.90
58517;DHT22;44308;50.810;0.284;2022-11-20T03:31:25;7.10;99.90
58517;DHT22;44308;50.810;0.284;2022-11-20T03:33:51;6.70;99.90
58517;DHT22;44308;50.810;0.284;2022-11-20T03:36:19;7.00;99.90
58517;DHT22;44308;50.810;0.284;2022-11-20T03:38:45;7.20;99.90
58517;DHT22;44308;50.810;0.284;2022-11-20T03:41:19;7.00;99.90
58517;DHT22;44308;50.810;0.284;2022-11-20T03:43:53;7.00;99.90
58517;DHT22;44308;50.810;0.284;2022-11-20T03:49:24;6.80;99.90
58517;DHT22;44308;50.810;0.284;2022-11-20T03:51:50;7.20;99.90
58517;DHT22;44308;50.810;0.284;2022-11-20T03:54:15;7.00;99.90
58517;DHT22;44308;50.810;0.284;2022-11-20T03:56:41;7.10;99.90
58517;DHT22;44308;50.810;0.284;2022-11-20T03:59:09;7.40;99.90
58517;DHT22;44308;50.810;0.284;2022-11-20T04:01:36;7.20;99.90
58517;DHT22;44308;50.810;0.284;2022-11-20T04:04:03;7.40;99.90
58517;DHT22;44308;50.810;0.284;2022-11-20T04:06:34;7.30;99.90
58517;DHT22;44308;50.810;0.284;2022-11-20T04:09:00;7.60;99.90
58517;DHT22;44308;50.810;0.284;2022-11-20T04:11:31;7.50;99.90
58517;DHT22;44308;50.810;0.284;2022-11-20T04:13:59;7.40;99.90
58517;DHT22;44308;50.810;0.284;2022-11-20T04:16:29;7.30;99.90
58517;DHT22;44308;50.810;0.284;2022-11-20T04:18:58;7.60;99.90
58517;DHT22;44308;50.810;0.284;2022-11-20T04:21:24;7.30;99.90
58517;DHT22;44308;50.810;0.284;2022-11-20T04:23:51;7.30;99.90
58517;DHT22;44308;50.810;0.284;2022-11-20T04:26:19;7.60;99.90
58517;DHT22;44308;50.810;0.284;2022-11-20T04:28:45;7.30;99.90
58517;DHT22;44308;50.810;0.284;2022-11-20T04:31:13;7.80;99.90
58517;DHT22;44308;50.810;0.284;2022-11-20T04:33:39;7.70;99.90
58517;DHT22;44308;50.810;0.284;2022-11-20T04:36:12;7.70;99.90
58517;DHT22;44308;50.810;0.284;2022-11-20T04:38:38;7.50;99.90
58517;DHT22;44308;50.810;0.284;2022-11-20T04:41:06;7.50;99.90
58517;DHT22;44308;50.810;0.284;2022-11-20T04:43:32;7.60;99.90
58517;DHT22;44308;50.810;0.284;2022-11-20T04:46:01;7.70;99.90
58517;DHT22;44308;50.810;0.284;2022-11-20T04:48:28;7.90;99.90
58517;DHT22;44308;50.810;0.284;2022-11-20T04:50:54;7.70;99.90
58517;DHT22;44308;50.810;0.284;2022-11-20T04:53:20;7.70;99.90
58517;DHT22;44308;50.810;0.284;2022-11-20T04:55:47;7.80;99.90
58517;DHT22;44308;50.810;0.284;2022-11-20T04:58:13;7.80;99.90
58517;DHT22;44308;50.810;0.284;2022-11-20T05:00:39;8.10;99.90
58517;DHT22;44308;50.810;0.284;2022-11-20T05:03:05;8.40;99.90
58517;DHT22;44308;50.810;0.284;2022-11-20T05:05:35;8.50;99.90
58517;DHT22;44308;50.810;0.284;2022-11-20T05:08:01;8.90;99.90
58517;DHT22;44308;50.810;0.284;2022-11-20T05:10:27;9.10;99.90
58517;DHT22;44308;50.810;0.284;2022-11-20T05:12:53;9.10;99.90
58517;DHT22;44308;50.810;0.284;2022-11-20T05:15:19;9.50;99.90
58517;DHT22;44308;50.810;0.284;2022-11-20T05:17:51;9.50;99.90
58517;DHT22;44308;50.810;0.284;2022-11-20T05:20:17;9.50;99.90
58517;DHT22;44308;50.810;0.284;2022-11-20T05:22:44;9.60;99.90
58517;DHT22;44308;50.810;0.284;2022-11-20T05:25:12;9.40;99.90
58517;DHT22;44308;50.810;0.284;2022-11-20T05:27:38;9.60;99.90
58517;DHT22;44308;50.810;0.284;2022-11-20T05:30:05;9.80;99.90
58517;DHT22;44308;50.810;0.284;2022-11-20T05:32:31;9.60;99.90
58517;DHT22;44308;50.810;0.284;2022-11-20T05:34:56;9.90;99.90
58517;DHT22;44308;50.810;0.284;2022-11-20T05:37:22;9.80;99.90
58517;DHT22;44308;50.810;0.284;2022-11-20T05:39:48;9.80;99.90
58517;DHT22;44308;50.810;0.284;2022-11-20T05:42:13;9.70;99.90
58517;DHT22;44308;50.810;0.284;2022-11-20T05:44:59;10.10;99.90
58517;DHT22;44308;50.810;0.284;2022-11-20T05:47:26;10.00;99.90
58517;DHT22;44308;50.810;0.284;2022-11-20T05:49:52;10.10;99.90
58517;DHT22;44308;50.810;0.284;2022-11-20T05:52:18;10.20;99.90
58517;DHT22;44308;50.810;0.284;2022-11-20T05:54:45;9.80;99.90
58517;DHT22;44308;50.810;0.284;2022-11-20T05:57:10;10.30;99.90
58517;DHT22;44308;50.810;0.284;2022-11-20T05:59:36;10.10;99.90
58517;DHT22;44308;50.810;0.284;2022-11-20T06:02:02;10.00;99.90
58517;DHT22;44308;50.810;0.284;2022-11-20T06:04:27;10.00;99.90
58517;DHT22;44308;50.810;0.284;2022-11-20T06:06:54;10.00;99.90
58517;DHT22;44308;50.810;0.284;2022-11-20T06:09:20;10.20;99.90
58517;DHT22;44308;50.810;0.284;2022-11-20T06:11:45;10.20;99.90
58517;DHT22;44308;50.810;0.284;2022-11-20T06:14:11;9.90;99.90
58517;DHT22;44308;50.810;0.284;2022-11-20T06:16:41;10.00;99.90
58517;DHT22;44308;50.810;0.284;2022-11-20T06:19:06;9.90;99.90
58517;DHT22;44308;50.810;0.284;2022-11-20T06:21:32;10.10;99.90
58517;DHT22;44308;50.810;0.284;2022-11-20T06:23:58;10.40;99.90
58517;DHT22;44308;50.810;0.284;2022-11-20T06:26:26;10.50;99.90
58517;DHT22;44308;50.810;0.284;2022-11-20T06:28:53;10.40;99.90
58517;DHT22;44308;50.810;0.284;2022-11-20T06:31:21;10.00;99.90
58517;DHT22;44308;50.810;0.284;2022-11-20T06:33:47;10.50;99.90
58517;DHT22;44308;50.810;0.284;2022-11-20T06:36:15;10.50;99.90
58517;DHT22;44308;50.810;0.284;2022-11-20T06:38:41;10.30;99.90
58517;DHT22;44308;50.810;0.284;2022-11-20T06:41:11;10.10;99.90
58517;DHT22;44308;50.810;0.284;2022-11-20T06:43:37;10.00;99.90
58517;DHT22;44308;50.810;0.284;2022-11-20T06:46:02;10.10;99.90
58517;DHT22;44308;50.810;0.284;2022-11-20T06:48:28;10.20;99.90
58517;DHT22;44308;50.810;0.284;2022-11-20T06:50:55;10.30;99.90
58517;DHT22;44308;50.810;0.284;2022-11-20T06:53:22;10.60;99.90
58517;DHT22;44308;50.810;0.284;2022-11-20T06:55:49;10.30;99.90
58517;DHT22;44308;50.810;0.284;2022-11-20T06:58:16;10.70;99.90
58517;DHT22;44308;50.810;0.284;2022-11-20T07:00:41;10.70;99.90
58517;DHT22;44308;50.810;0.284;2022-11-20T07:03:09;10.60;99.90
58517;DHT22;44308;50.810;0.284;2022-11-20T07:05:36;10.10;99.90
58517;DHT22;44308;50.810;0.284;2022-11-20T07:08:02;10.60;99.90
58517;DHT22;44308;50.810;0.284;2022-11-20T07:10:28;10.10;99.90
58517;DHT22;44308;50.810;0.284;2022-11-20T07:12:54;10.50;99.90
58517;DHT22;44308;50.810;0.284;2022-11-20T07:15:21;10.40;99.90
58517;DHT22;44308;50.810;0.284;2022-11-20T07:17:48;10.20;99.90
58517;DHT22;44308;50.810;0.284;2022-11-20T07:20:14;10.20;99.90
58517;DHT22;44308;50.810;0.284;2022-11-20T07:22:40;10.70;99.90
58517;DHT22;44308;50.810;0.284;2022-11-20T07:25:08;10.30;99.90
58517;DHT22;44308;50.810;0.284;2022-11-20T07:27:34;10.40;99.90
58517;DHT22;44308;50.810;0.284;2022-11-20T07:30:00;10.80;99.90
58517;DHT22;44308;50.810;0.284;2022-11-20T07:32:26;10.40;99.90
58517;DHT22;44308;50.810;0.284;2022-11-20T07:34:52;10.50;99.90
58517;DHT22;44308;50.810;0.284;2022-11-20T07:37:18;10.90;99.90
58517;DHT22;44308;50.810;0.284;2022-11-20T07:39:44;10.80;99.90
58517;DHT22;44308;50.810;0.284;2022-11-20T07:42:10;11.00;99.90
58517;DHT22;44308;50.810;0.284;2022-11-20T07:44:38;11.10;99.90
58517;DHT22;44308;50.810;0.284;2022-11-20T07:47:23;11.20;99.90
58517;DHT22;44308;50.810;0.284;2022-11-20T07:49:49;11.00;99.90
58517;DHT22;44308;50.810;0.284;2022-11-20T07:52:14;11.10;99.90
58517;DHT22;44308;50.810;0.284;2022-11-20T07:54:40;10.90;99.90
58517;DHT22;44308;50.810;0.284;2022-11-20T07:57:26;11.30;99.90
58517;DHT22;44308;50.810;0.284;2022-11-20T07:59:51;11.40;99.90
58517;DHT22;44308;50.810;0.284;2022-11-20T08:02:17;11.10;99.90
58517;DHT22;44308;50.810;0.284;2022-11-20T08:04:43;11.10;99.90
58517;DHT22;44308;50.810;0.284;2022-11-20T08:07:08;11.20;99.90
58517;DHT22;44308;50.810;0.284;2022-11-20T08:09:34;11.10;99.90
58517;DHT22;44308;50.810;0.284;2022-11-20T08:12:00;11.10;99.90
58517;DHT22;44308;50.810;0.284;2022-11-20T08:14:44;11.50;99.90
58517;DHT22;44308;50.810;0.284;2022-11-20T08:17:10;11.30;99.90
58517;DHT22;44308;50.810;0.284;2022-11-20T08:19:35;11.50;99.90
58517;DHT22;44308;50.810;0.284;2022-11-20T08:22:01;11.60;99.90
58517;DHT22;44308;50.810;0.284;2022-11-20T08:24:27;11.10;99.90
58517;DHT22;44308;50.810;0.284;2022-11-20T08:26:56;11.60;99.90
58517;DHT22;44308;50.810;0.284;2022-11-20T08:29:22;11.50;99.90
58517;DHT22;44308;50.810;0.284;2022-11-20T08:31:48;11.20;99.90
58517;DHT22;44308;50.810;0.284;2022-11-20T08:34:13;11.70;99.90
58517;DHT22;44308;50.810;0.284;2022-11-20T08:36:43;11.40;99.90
58517;DHT22;44308;50.810;0.284;2022-11-20T08:39:11;11.40;99.90
58517;DHT22;44308;50.810;0.284;2022-11-20T08:41:37;11.70;99.90
58517;DHT22;44308;50.810;0.284;2022-11-20T08:44:04;11.60;99.90
58517;DHT22;44308;50.810;0.284;2022-11-20T08:46:39;11.70;99.90
58517;DHT22;44308;50.810;0.284;2022-11-20T08:49:10;11.30;99.90
58517;DHT22;44308;50.810;0.284;2022-11-20T08:51:37;11.80;99.90
58517;DHT22;44308;50.810;0.284;2022-11-20T08:54:03;11.70;99.90
58517;DHT22;44308;50.810;0.284;2022-11-20T08:56:49;11.30;99.90
58517;DHT22;44308;50.810;0.284;2022-11-20T08:59:15;10.90;99.90
58517;DHT22;44308;50.810;0.284;2022-11-20T09:01:41;11.10;99.90
58517;DHT22;44308;50.810;0.284;2022-11-20T09:04:06;11.00;99.90
58517;DHT22;44308;50.810;0.284;2022-11-20T09:06:33;10.60;99.90
58517;DHT22;44308;50.810;0.284;2022-11-20T09:08:59;10.70;99.90
58517;DHT22;44308;50.810;0.284;2022-11-20T09:11:24;10.70;99.90
58517;DHT22;44308;50.810;0.284;2022-11-20T09:13:50;10.80;99.90
58517;DHT22;44308;50.810;0.284;2022-11-20T09:16:17;10.60;99.90
58517;DHT22;44308;50.810;0.284;2022-11-20T09:18:43;11.20;99.90
58517;DHT22;44308;50.810;0.284;2022-11-20T09:21:11;11.20;99.90
58517;DHT22;44308;50.810;0.284;2022-11-20T09:23:38;11.60;99.90
58517;DHT22;44308;50.810;0.284;2022-11-20T09:26:11;11.50;99.90
58517;DHT22;44308;50.810;0.284;2022-11-20T09:28:37;11.70;99.90
58517;DHT22;44308;50.810;0.284;2022-11-20T09:31:07;11.90;99.90
58517;DHT22;44308;50.810;0.284;2022-11-20T09:33:34;12.00;99.90
58517;DHT22;44308;50.810;0.284;2022-11-20T09:39:05;12.30;99.90
58517;DHT22;44308;50.810;0.284;2022-11-20T09:46:57;12.70;99.90
58517;DHT22;44308;50.810;0.284;2022-11-20T09:54:56;13.00;99.90
58517;DHT22;44308;50.810;0.284;2022-11-20T09:57:28;12.80;99.90
58517;DHT22;44308;50.810;0.284;2022-11-20T09:59:59;12.70;99.90
58517;DHT22;44308;50.810;0.284;2022-11-20T10:02:29;12.70;99.90
58517;DHT22;44308;50.810;0.284;2022-11-20T10:08:18;12.70;99.90
58517;DHT22;44308;50.810;0.284;2022-11-20T10:11:04;12.70;99.90
58517;DHT22;44308;50.810;0.284;2022-11-20T10:13:56;12.90;99.90
58517;DHT22;44308;50.810;0.284;2022-11-20T10:24:44;13.20;99.90
58517;DHT22;44308;50.810;0.284;2022-11-20T10:30:15;13.00;99.90
58517;DHT22;44308;50.810;0.284;2022-11-20T10:33:17;12.80;99.90
58517;DHT22;44308;50.810;0.284;2022-11-20T10:38:20;12.30;99.90
58517;DHT22;44308;50.810;0.284;2022-11-20T10:40:57;12.30;99.90
58517;DHT22;44308;50.810;0.284;2022-11-20T10:43:44;12.70;99.90
58517;DHT22;44308;50.810;0.284;2022-11-20T10:46:18;13.20;99.90
58517;DHT22;44308;50.810;0.284;2022-11-20T10:48:45;13.40;99.90
58517;DHT22;44308;50.810;0.284;2022-11-20T10:56:53;13.40;99.90
58517;DHT22;44308;50.810;0.284;2022-11-20T11:02:22;13.50;99.90
58517;DHT22;44308;50.810;0.284;2022-11-20T11:04:52;13.60;99.90
58517;DHT22;44308;50.810;0.284;2022-11-20T11:07:33;13.40;99.90
58517;DHT22;44308;50.810;0.284;2022-11-20T11:10:21;13.40;99.90
58517;DHT22;44308;50.810;0.284;2022-11-20T11:12:48;13.40;99.90
58517;DHT22;44308;50.810;0.284;2022-11-20T11:15:36;13.40;99.90
58517;DHT22;44308;50.810;0.284;2022-11-20T11:18:02;13.40;99.90
58517;DHT22;44308;50.810;0.284;2022-11-20T11:20:33;13.50;99.90
58517;DHT22;44308;50.810;0.284;2022-11-20T11:23:02;13.40;99.90
58517;DHT22;44308;50.810;0.284;2022-11-20T11:25:34;13.00;99.90
58517;DHT22;44308;50.810;0.284;2022-11-20T11:28:19;12.80;99.90
58517;DHT22;44308;50.810;0.284;2022-11-20T11:30:46;12.70;99.90
58517;DHT22;44308;50.810;0.284;2022-11-20T11:33:30;12.70;99.90
58517;DHT22;44308;50.810;0.284;2022-11-20T11:36:01;12.50;99.90
58517;DHT22;44308;50.810;0.284;2022-11-20T11:40:54;12.40;99.90
58517;DHT22;44308;50.810;0.284;2022-11-20T11:43:35;12.30;99.90
58517;DHT22;44308;50.810;0.284;2022-11-20T11:49:20;12.10;99.90
58517;DHT22;44308;50.810;0.284;2022-11-20T11:57:16;12.10;99.90
58517;DHT22;44308;50.810;0.284;2022-11-20T12:00:03;12.20;99.90
58517;DHT22;44308;50.810;0.284;2022-11-20T12:05:18;12.30;99.90
58517;DHT22;44308;50.810;0.284;2022-11-20T12:07:57;12.50;99.90
58517;DHT22;44308;50.810;0.284;2022-11-20T12:13:08;12.60;99.90
58517;DHT22;44308;50.810;0.284;2022-11-20T12:15:40;12.80;99.90
58517;DHT22;44308;50.810;0.284;2022-11-20T12:18:18;12.80;99.90
58517;DHT22;44308;50.810;0.284;2022-11-20T12:41:15;13.10;99.90
58517;DHT22;44308;50.810;0.284;2022-11-20T12:44:19;13.20;99.90
58517;DHT22;44308;50.810;0.284;2022-11-20T12:53:04;13.20;99.90
58517;DHT22;44308;50.810;0.284;2022-11-20T13:06:44;13.50;99.90
58517;DHT22;44308;50.810;0.284;2022-11-20T13:09:13;13.50;99.90
58517;DHT22;44308;50.810;0.284;2022-11-20T13:12:05;13.60;99.90
58517;DHT22;44308;50.810;0.284;2022-11-20T13:14:42;13.60;99.90
58517;DHT22;44308;50.810;0.284;2022-11-20T13:17:22;13.80;99.90
58517;DHT22;44308;50.810;0.284;2022-11-20T13:19:53;13.80;99.90
58517;DHT22;44308;50.810;0.284;2022-11-20T13:22:43;13.70;99.90
58517;DHT22;44308;50.810;0.284;2022-11-20T13:25:26;13.30;99.90
58517;DHT22;44308;50.810;0.284;2022-11-20T13:27:53;13.40;99.90
58517;DHT22;44308;50.810;0.284;2022-11-20T13:30:26;13.50;99.90
58517;DHT22;44308;50.810;0.284;2022-11-20T13:33:22;13.30;99.90
58517;DHT22;44308;50.810;0.284;2022-11-20T13:36:00;13.20;99.90
58517;DHT22;44308;50.810;0.284;2022-11-20T13:38:44;13.30;99.90
58517;DHT22;44308;50.810;0.284;2022-11-20T13:41:11;13.30;99.90
58517;DHT22;44308;50.810;0.284;2022-11-20T13:44:23;13.50;99.90
58517;DHT22;44308;50.810;0.284;2022-11-20T13:46:46;13.50;99.90
58517;DHT22;44308;50.810;0.284;2022-11-20T13:49:38;13.50;99.90
58517;DHT22;44308;50.810;0.284;2022-11-20T13:52:34;13.40;99.90
58517;DHT22;44308;50.810;0.284;2022-11-20T14:00:12;13.20;99.90
58517;DHT22;44308;50.810;0.284;2022-11-20T14:02:38;13.30;99.90
58517;DHT22;44308;50.810;0.284;2022-11-20T14:05:05;13.40;99.90
58517;DHT22;44308;50.810;0.284;2022-11-20T14:07:38;13.30;99.90
58517;DHT22;44308;50.810;0.284;2022-11-20T14:10:23;13.20;99.90
58517;DHT22;44308;50.810;0.284;2022-11-20T14:12:49;13.10;99.90
58517;DHT22;44308;50.810;0.284;2022-11-20T14:15:33;13.00;99.90
58517;DHT22;44308;50.810;0.284;2022-11-20T14:18:18;12.80;99.90
58517;DHT22;44308;50.810;0.284;2022-11-20T14:20:45;12.70;99.90
58517;DHT22;44308;50.810;0.284;2022-11-20T14:23:11;12.60;99.90
58517;DHT22;44308;50.810;0.284;2022-11-20T14:25:41;12.50;99.90
58517;DHT22;44308;50.810;0.284;2022-11-20T14:28:11;12.50;99.90
58517;DHT22;44308;50.810;0.284;2022-11-20T14:30:48;12.40;99.90
58517;DHT22;44308;50.810;0.284;2022-11-20T14:33:15;12.20;99.90
58517;DHT22;44308;50.810;0.284;2022-11-20T14:35:50;12.00;99.90
58517;DHT22;44308;50.810;0.284;2022-11-20T14:38:24;11.90;99.90
58517;DHT22;44308;50.810;0.284;2022-11-20T14:40:50;11.90;99.90
58517;DHT22;44308;50.810;0.284;2022-11-20T14:43:28;11.80;99.90
58517;DHT22;44308;50.810;0.284;2022-11-20T14:46:00;11.80;99.90
58517;DHT22;44308;50.810;0.284;2022-11-20T14:49:00;11.70;99.90
58517;DHT22;44308;50.810;0.284;2022-11-20T14:54:17;11.80;99.90
58517;DHT22;44308;50.810;0.284;2022-11-20T14:56:55;11.90;99.90
58517;DHT22;44308;50.810;0.284;2022-11-20T14:59:29;11.90;99.90
58517;DHT22;44308;50.810;0.284;2022-11-20T15:02:03;11.70;99.90
58517;DHT22;44308;50.810;0.284;2022-11-20T15:04:29;11.70;99.90
58517;DHT22;44308;50.810;0.284;2022-11-20T15:06:56;11.60;99.90
58517;DHT22;44308;50.810;0.284;2022-11-20T15:09:23;11.60;99.90
58517;DHT22;44308;50.810;0.284;2022-11-20T15:11:59;11.50;99.90
58517;DHT22;44308;50.810;0.284;2022-11-20T15:14:27;11.50;99.90
58517;DHT22;44308;50.810;0.284;2022-11-20T15:16:55;11.50;99.90
58517;DHT22;44308;50.810;0.284;2022-11-20T15:19:25;11.50;99.90
58517;DHT22;44308;50.810;0.284;2022-11-20T15:21:52;11.40;99.90
58517;DHT22;44308;50.810;0.284;2022-11-20T15:24:19;11.40;99.90
58517;DHT22;44308;50.810;0.284;2022-11-20T15:26:44;11.40;99.90
58517;DHT22;44308;50.810;0.284;2022-11-20T15:29:15;11.40;99.90
58517;DHT22;44308;50.810;0.284;2022-11-20T15:31:44;11.30;99.90
58517;DHT22;44308;50.810;0.284;2022-11-20T15:34:15;11.30;99.90
58517;DHT22;44308;50.810;0.284;2022-11-20T15:36:45;11.30;99.90
58517;DHT22;44308;50.810;0.284;2022-11-20T15:39:11;11.30;99.90
58517;DHT22;44308;50.810;0.284;2022-11-20T15:41:40;11.30;99.90
58517;DHT22;44308;50.810;0.284;2022-11-20T15:44:06;11.30;99.90
58517;DHT22;44308;50.810;0.284;2022-11-20T15:46:41;11.20;99.90
58517;DHT22;44308;50.810;0.284;2022-11-20T15:49:15;11.30;99.90
58517;DHT22;44308;50.810;0.284;2022-11-20T15:51:44;11.30;99.90
58517;DHT22;44308;50.810;0.284;2022-11-20T15:54:13;11.20;99.90
58517;DHT22;44308;50.810;0.284;2022-11-20T15:56:39;11.20;99.90
58517;DHT22;44308;50.810;0.284;2022-11-20T15:59:05;11.10;99.90
58517;DHT22;44308;50.810;0.284;2022-11-20T16:01:31;11.00;99.90
58517;DHT22;44308;50.810;0.284;2022-11-20T16:03:57;10.90;99.90
58517;DHT22;44308;50.810;0.284;2022-11-20T16:06:25;11.00;99.90
58517;DHT22;44308;50.810;0.284;2022-11-20T16:08:53;10.90;99.90
58517;DHT22;44308;50.810;0.284;2022-11-20T16:11:22;10.90;99.90
58517;DHT22;44308;50.810;0.284;2022-11-20T16:13:59;10.80;99.90
58517;DHT22;44308;50.810;0.284;2022-11-20T16:16:44;10.80;99.90
58517;DHT22;44308;50.810;0.284;2022-11-20T16:19:13;10.70;99.90
58517;DHT22;44308;50.810;0.284;2022-11-20T16:21:39;10.70;99.90
58517;DHT22;44308;50.810;0.284;2022-11-20T16:24:09;10.60;99.90
58517;DHT22;44308;50.810;0.284;2022-11-20T16:26:36;10.50;99.90
58517;DHT22;44308;50.810;0.284;2022-11-20T16:29:03;10.50;99.90
58517;DHT22;44308;50.810;0.284;2022-11-20T16:31:31;10.50;99.90
58517;DHT22;44308;50.810;0.284;2022-11-20T16:33:58;10.50;99.90
58517;DHT22;44308;50.810;0.284;2022-11-20T16:36:25;10.50;99.90
58517;DHT22;44308;50.810;0.284;2022-11-20T16:38:57;10.50;99.90
58517;DHT22;44308;50.810;0.284;2022-11-20T16:41:25;10.60;99.90
58517;DHT22;44308;50.810;0.284;2022-11-20T16:43:55;10.70;99.90
58517;DHT22;44308;50.810;0.284;2022-11-20T16:46:27;10.70;99.90
58517;DHT22;44308;50.810;0.284;2022-11-20T16:51:23;10.90;99.90
58517;DHT22;44308;50.810;0.284;2022-11-20T16:53:50;10.90;99.90
58517;DHT22;44308;50.810;0.284;2022-11-20T16:56:19;11.00;99.90
58517;DHT22;44308;50.810;0.284;2022-11-20T16:58:49;11.00;99.90
58517;DHT22;44308;50.810;0.284;2022-11-20T17:01:18;11.10;99.90
58517;DHT22;44308;50.810;0.284;2022-11-20T17:03:53;11.20;99.90
58517;DHT22;44308;50.810;0.284;2022-11-20T17:06:21;11.10;99.90
58517;DHT22;44308;50.810;0.284;2022-11-20T17:08:47;10.80;99.90
58517;DHT22;44308;50.810;0.284;2022-11-20T17:11:15;10.70;99.90
58517;DHT22;44308;50.810;0.284;2022-11-20T17:13:41;10.50;99.90
58517;DHT22;44308;50.810;0.284;2022-11-20T17:16:11;10.40;99.90
58517;DHT22;44308;50.810;0.284;2022-11-20T17:18:39;10.10;99.90
58517;DHT22;44308;50.810;0.284;2022-11-20T17:21:06;10.00;99.90
58517;DHT22;44308;50.810;0.284;2022-11-20T17:23:33;9.90;99.90
58517;DHT22;44308;50.810;0.284;2022-11-20T17:26:07;9.70;99.90
58517;DHT22;44308;50.810;0.284;2022-11-20T17:28:33;9.40;99.90
58517;DHT22;44308;50.810;0.284;2022-11-20T17:31:15;9.30;99.90
58517;DHT22;44308;50.810;0.284;2022-11-20T17:33:43;9.30;99.90
58517;DHT22;44308;50.810;0.284;2022-11-20T17:36:11;9.10;99.90
58517;DHT22;44308;50.810;0.284;2022-11-20T17:38:37;9.20;99.90
58517;DHT22;44308;50.810;0.284;2022-11-20T17:43:36;9.20;99.90
58517;DHT22;44308;50.810;0.284;2022-11-20T17:46:10;9.30;99.90
58517;DHT22;44308;50.810;0.284;2022-11-20T17:48:36;9.30;99.90
58517;DHT22;44308;50.810;0.284;2022-11-20T17:51:05;9.40;99.90